createdAt,value
2022-12-16T00:01:26.510Z,110.77
2022-12-16T00:03:56.241Z,128.07
2022-12-16T00:06:26.370Z,115.27
2022-12-16T00:08:53.679Z,111.70
2022-12-16T00:11:21.838Z,113.53
2022-12-16T00:13:49.017Z,104.83
2022-12-16T00:16:18.717Z,120.57
2022-12-16T00:18:47.798Z,121.67
2022-12-16T00:21:15.341Z,115.97
2022-12-16T00:23:42.277Z,153.17
2022-12-16T00:26:10.689Z,130.33
2022-12-16T00:28:39.119Z,134.20
2022-12-16T00:31:06.890Z,132.23
2022-12-16T00:33:34.462Z,123.90
2022-12-16T00:36:01.884Z,128.47
2022-12-16T00:38:28.828Z,107.87
2022-12-16T00:40:56.131Z,144.10
2022-12-16T00:43:23.191Z,122.97
2022-12-16T00:45:50.273Z,120.60
2022-12-16T00:48:19.126Z,130.00
2022-12-16T00:50:55.783Z,134.77
2022-12-16T00:53:24.748Z,100.90
2022-12-16T00:56:01.376Z,122.53
2022-12-16T00:58:28.336Z,133.73
2022-12-16T01:00:55.352Z,142.23
2022-12-16T01:03:22.550Z,119.23
2022-12-16T01:05:49.842Z,138.73
2022-12-16T01:08:17.572Z,103.70
2022-12-16T01:10:55.476Z,99.67
2022-12-16T01:13:24.644Z,99.20
2022-12-16T01:15:52.279Z,110.87
2022-12-16T01:18:19.520Z,108.77
2022-12-16T01:20:46.472Z,105.77
2022-12-16T01:23:13.419Z,77.80
2022-12-16T01:25:40.367Z,102.27
2022-12-16T01:28:07.339Z,87.63
2022-12-16T01:30:35.565Z,93.13
2022-12-16T01:33:02.586Z,90.50
2022-12-16T01:35:54.803Z,81.63
2022-12-16T01:38:16.629Z,93.10
2022-12-16T01:40:43.563Z,84.47
2022-12-16T01:43:22.950Z,83.33
2022-12-16T01:45:50.109Z,98.03
2022-12-16T01:48:53.195Z,90.63
2022-12-16T01:51:47.534Z,75.80
2022-12-16T01:54:26.855Z,69.83
2022-12-16T01:56:58.044Z,73.13
2022-12-16T01:59:28.835Z,64.97
2022-12-16T02:01:57.419Z,68.40
2022-12-16T02:04:24.478Z,65.00
2022-12-16T02:06:59.175Z,64.73
2022-12-16T02:09:26.380Z,59.77
2022-12-16T02:12:22.654Z,65.83
2022-12-16T02:15:02.501Z,63.53
2022-12-16T02:17:42.528Z,60.10
2022-12-16T02:20:44.840Z,74.10
2022-12-16T02:23:43.720Z,67.03
2022-12-16T02:26:57.388Z,68.50
2022-12-16T02:29:43.094Z,62.37
2022-12-16T02:32:43.164Z,66.30
2022-12-16T02:35:20.957Z,74.93
2022-12-16T02:38:02.560Z,86.83
2022-12-16T02:40:43.524Z,75.97
2022-12-16T02:43:27.558Z,106.53
2022-12-16T02:45:54.639Z,99.53
2022-12-16T02:48:22.462Z,100.30
2022-12-16T02:50:52.102Z,82.37
2022-12-16T02:53:20.677Z,82.77
2022-12-16T02:56:15.952Z,92.97
2022-12-16T02:59:16.760Z,92.77
2022-12-16T03:02:16.821Z,93.37
2022-12-16T03:04:49.657Z,87.97
2022-12-16T03:07:19.512Z,97.70
2022-12-16T03:09:47.966Z,91.37
2022-12-16T03:12:18.810Z,98.27
2022-12-16T03:14:51.311Z,85.57
2022-12-16T03:17:20.927Z,92.17
2022-12-16T03:20:01.776Z,96.60
2022-12-16T03:22:34.193Z,97.13
2022-12-16T03:25:01.190Z,91.37
2022-12-16T03:27:58.493Z,117.43
2022-12-16T03:30:40.196Z,86.83
2022-12-16T03:33:27.192Z,94.63
2022-12-16T03:36:08.357Z,92.23
2022-12-16T03:38:37.097Z,94.03
2022-12-16T03:41:05.304Z,105.43
2022-12-16T03:43:32.561Z,95.60
2022-12-16T03:46:04.860Z,105.23
2022-12-16T03:48:33.778Z,87.33
2022-12-16T03:51:01.294Z,94.87
2022-12-16T03:53:28.340Z,114.80
2022-12-16T03:55:55.362Z,90.77
2022-12-16T03:58:22.416Z,87.70
2022-12-16T04:00:49.706Z,98.77
2022-12-16T04:03:16.824Z,118.27
2022-12-16T04:05:45.960Z,101.67
2022-12-16T04:08:13.054Z,121.63
2022-12-16T04:10:58.492Z,106.30
2022-12-16T04:13:43.665Z,99.23
2022-12-16T04:16:34.602Z,107.20
2022-12-16T04:19:21.091Z,97.83
2022-12-16T04:22:06.485Z,116.70
2022-12-16T04:24:34.088Z,125.47
2022-12-16T04:27:19.469Z,117.73
2022-12-16T04:30:04.696Z,77.50
2022-12-16T04:32:52.317Z,93.47
2022-12-16T04:35:37.867Z,93.33
2022-12-16T04:38:23.760Z,76.37
2022-12-16T04:41:09.026Z,82.70
2022-12-16T04:43:54.576Z,83.03
2022-12-16T04:46:40.157Z,74.40
2022-12-16T04:49:26.128Z,74.83
2022-12-16T04:52:11.812Z,74.43
2022-12-16T04:54:59.039Z,72.13
2022-12-16T04:57:44.836Z,89.07
2022-12-16T05:00:31.211Z,79.53
2022-12-16T05:03:17.221Z,120.70
2022-12-16T05:06:02.562Z,122.07
2022-12-16T05:08:47.877Z,84.90
2022-12-16T05:11:33.636Z,81.17
2022-12-16T05:14:18.957Z,108.63
2022-12-16T05:17:04.312Z,93.53
2022-12-16T05:19:49.547Z,86.73
2022-12-16T05:22:35.575Z,100.87
2022-12-16T05:25:20.974Z,108.37
2022-12-16T05:28:13.243Z,114.73
2022-12-16T05:30:58.660Z,100.33
2022-12-16T05:33:44.573Z,92.23
2022-12-16T05:36:29.897Z,80.97
2022-12-16T05:39:15.446Z,78.23
2022-12-16T05:42:00.689Z,91.23
2022-12-16T05:44:46.025Z,86.47
2022-12-16T05:47:32.315Z,89.30
2022-12-16T05:50:17.846Z,83.07
2022-12-16T05:53:14.550Z,77.77
2022-12-16T05:56:01.393Z,80.93
2022-12-16T05:58:47.812Z,70.53
2022-12-16T06:01:33.984Z,88.87
2022-12-16T06:04:19.511Z,85.67
2022-12-16T06:07:05.652Z,88.80
2022-12-16T06:09:56.373Z,88.33
2022-12-16T06:12:42.727Z,94.70
2022-12-16T06:15:29.188Z,79.87
2022-12-16T06:18:14.517Z,85.40
2022-12-16T06:21:00.383Z,85.87
2022-12-16T06:23:45.707Z,74.57
2022-12-16T06:26:31.410Z,81.23
2022-12-16T06:29:17.026Z,86.53
2022-12-16T06:32:02.428Z,91.30
2022-12-16T06:34:47.835Z,84.20
2022-12-16T06:37:33.110Z,95.73
2022-12-16T06:40:18.450Z,90.33
2022-12-16T06:43:03.743Z,90.30
2022-12-16T06:45:49.117Z,90.33
2022-12-16T06:48:34.452Z,98.93
2022-12-16T06:51:19.731Z,89.37
2022-12-16T06:54:05.001Z,93.57
2022-12-16T06:56:50.635Z,93.83
2022-12-16T06:59:35.910Z,79.47
2022-12-16T07:02:21.262Z,99.37
2022-12-16T07:05:06.789Z,103.17
2022-12-16T07:07:52.463Z,81.53
2022-12-16T07:10:37.956Z,80.50
2022-12-16T07:13:23.262Z,82.57
2022-12-16T07:16:08.695Z,77.53
2022-12-16T07:18:53.902Z,82.83
2022-12-16T07:21:39.168Z,76.50
2022-12-16T07:24:25.242Z,76.57
2022-12-16T07:27:10.586Z,88.27
2022-12-16T07:29:55.958Z,92.23
2022-12-16T07:32:41.272Z,95.27
2022-12-16T07:35:26.634Z,96.10
2022-12-16T07:38:11.938Z,97.07
2022-12-16T07:40:57.712Z,80.07
2022-12-16T07:43:43.077Z,80.77
2022-12-16T07:46:28.303Z,78.53
2022-12-16T07:49:13.736Z,95.73
2022-12-16T07:51:59.024Z,102.33
2022-12-16T07:54:44.642Z,83.93
2022-12-16T07:57:29.982Z,80.73
2022-12-16T08:00:15.229Z,76.20
2022-12-16T08:03:00.678Z,72.30
2022-12-16T08:05:45.943Z,86.57
2022-12-16T08:08:31.301Z,84.17
2022-12-16T08:11:16.708Z,84.97
2022-12-16T08:14:01.967Z,98.33
2022-12-16T08:16:50.447Z,83.13
2022-12-16T08:19:36.483Z,87.93
2022-12-16T08:22:22.040Z,83.13
2022-12-16T08:25:07.564Z,60.23
2022-12-16T08:27:52.934Z,85.87
2022-12-16T08:30:38.357Z,69.80
2022-12-16T08:33:43.542Z,84.17
2022-12-16T08:36:29.059Z,81.90
2022-12-16T08:39:14.836Z,81.33
2022-12-16T08:42:00.634Z,75.40
2022-12-16T08:44:46.259Z,98.00
2022-12-16T08:47:31.918Z,101.40
2022-12-16T08:50:17.455Z,102.50
2022-12-16T08:53:14.338Z,80.80
2022-12-16T08:55:59.862Z,98.03
2022-12-16T08:58:45.713Z,84.67
2022-12-16T09:01:31.494Z,103.30
2022-12-16T09:04:16.922Z,93.00
2022-12-16T09:07:02.885Z,106.07
2022-12-16T09:09:48.282Z,99.23
2022-12-16T09:12:33.621Z,81.03
2022-12-16T09:15:18.881Z,96.43
2022-12-16T09:18:04.681Z,91.77
2022-12-16T09:20:50.292Z,100.83
2022-12-16T09:23:35.862Z,89.53
2022-12-16T09:26:21.728Z,86.53
2022-12-16T09:29:07.035Z,86.67
2022-12-16T09:31:52.365Z,88.47
2022-12-16T09:34:37.694Z,79.10
2022-12-16T09:37:22.866Z,84.90
2022-12-16T09:40:08.338Z,76.30
2022-12-16T09:43:06.097Z,78.90
2022-12-16T09:46:19.817Z,72.07
2022-12-16T09:49:36.418Z,76.50
2022-12-16T09:52:24.596Z,66.00
2022-12-16T09:55:10.372Z,77.67
2022-12-16T09:57:56.180Z,71.73
2022-12-16T10:00:45.763Z,77.13
2022-12-16T10:03:41.672Z,69.70
2022-12-16T10:07:04.916Z,61.23
2022-12-16T10:10:36.091Z,70.50
2022-12-16T10:13:47.868Z,76.23
2022-12-16T10:16:56.304Z,77.93
2022-12-16T10:20:05.990Z,64.00
2022-12-16T10:23:48.085Z,68.93
2022-12-16T10:26:49.676Z,81.73
2022-12-16T10:29:39.704Z,71.30
2022-12-16T10:32:50.765Z,70.83
2022-12-16T10:35:51.405Z,67.70
2022-12-16T10:39:09.656Z,80.37
2022-12-16T10:42:02.237Z,75.73
2022-12-16T10:45:02.605Z,77.07
2022-12-16T10:47:48.851Z,65.60
2022-12-16T10:50:34.777Z,82.00
2022-12-16T10:53:33.182Z,70.57
2022-12-16T10:56:52.611Z,84.23
2022-12-16T10:59:38.760Z,86.10
2022-12-16T11:02:39.829Z,72.07
2022-12-16T11:05:53.742Z,72.73
2022-12-16T11:08:53.067Z,85.83
2022-12-16T11:11:47.686Z,77.97
2022-12-16T11:14:37.572Z,70.20
2022-12-16T11:17:45.704Z,184.53
2022-12-16T11:20:43.704Z,305.10
2022-12-16T11:23:40.294Z,235.30
2022-12-16T11:26:37.148Z,298.93
2022-12-16T11:29:32.164Z,209.97
2022-12-16T11:32:20.543Z,203.33
2022-12-16T11:35:13.709Z,223.27
2022-12-16T11:38:00.681Z,203.87
2022-12-16T11:40:47.941Z,213.60
2022-12-16T11:43:43.829Z,332.80
2022-12-16T11:46:35.137Z,313.53
2022-12-16T11:49:25.816Z,303.70
2022-12-16T11:59:44.014Z,202.57
2022-12-16T12:02:56.048Z,226.47
2022-12-16T12:06:40.934Z,264.27
2022-12-16T12:09:30.781Z,209.53
2022-12-16T12:12:50.262Z,220.37
2022-12-16T12:15:50.218Z,192.20
2022-12-16T12:19:04.007Z,201.17
2022-12-16T12:22:55.269Z,213.90
2022-12-16T12:25:51.731Z,198.87
2022-12-16T12:29:14.211Z,228.13
2022-12-16T12:32:44.790Z,205.10
2022-12-16T12:36:09.969Z,203.37
2022-12-16T12:39:17.332Z,204.07
2022-12-16T12:42:14.308Z,204.27
2022-12-16T12:45:17.668Z,243.23
2022-12-16T12:48:19.423Z,212.17
2022-12-16T12:51:40.971Z,235.50
2022-12-16T12:54:45.155Z,241.33
2022-12-16T12:57:34.203Z,248.23
2022-12-16T13:00:36.487Z,391.17
2022-12-16T13:03:36.895Z,366.97
2022-12-16T13:06:23.260Z,205.77
2022-12-16T13:09:08.721Z,206.67
2022-12-16T13:12:18.766Z,204.03
2022-12-16T13:15:11.643Z,211.60
2022-12-16T13:18:22.168Z,208.13
2022-12-16T13:21:16.389Z,204.93
2022-12-16T13:24:04.017Z,208.10
2022-12-16T13:26:52.982Z,197.80
2022-12-16T13:29:47.548Z,379.40
2022-12-16T13:32:42.507Z,195.70
2022-12-16T13:35:27.858Z,234.40
2022-12-16T13:38:24.988Z,204.53
2022-12-16T13:41:15.913Z,206.50
2022-12-16T13:44:11.847Z,229.33
2022-12-16T13:47:09.542Z,208.57
2022-12-16T13:49:54.920Z,216.97
2022-12-16T13:53:11.644Z,252.00
2022-12-16T13:56:15.016Z,256.97
2022-12-16T13:59:09.699Z,287.77
2022-12-16T14:02:16.765Z,246.73
2022-12-16T14:05:06.601Z,236.97
2022-12-16T14:07:56.045Z,219.07
2022-12-16T14:10:46.637Z,229.07
2022-12-16T14:13:44.849Z,227.37
2022-12-16T14:16:55.523Z,233.13
2022-12-16T14:19:53.629Z,199.63
2022-12-16T14:23:32.563Z,215.20
2022-12-16T14:26:19.088Z,213.13
2022-12-16T14:29:08.203Z,226.23
2022-12-16T14:32:22.147Z,212.73
2022-12-16T14:35:20.386Z,226.77
2022-12-16T14:38:06.245Z,308.30
2022-12-16T14:40:52.481Z,338.47
2022-12-16T14:43:44.099Z,237.93
2022-12-16T14:46:50.400Z,217.77
2022-12-16T14:49:50.268Z,246.83
2022-12-16T14:52:46.490Z,207.20
2022-12-16T14:55:46.418Z,261.50
2022-12-16T14:58:36.257Z,245.23
2022-12-16T15:01:34.527Z,372.03
2022-12-16T15:04:24.804Z,228.17
2022-12-16T15:07:13.281Z,244.40
2022-12-16T15:10:07.007Z,232.13
2022-12-16T15:13:02.622Z,240.13
2022-12-16T15:16:04.741Z,214.43
2022-12-16T15:18:59.883Z,215.93
2022-12-16T15:21:45.433Z,231.43
2022-12-16T15:24:37.963Z,227.30
2022-12-16T15:27:42.821Z,334.80
2022-12-16T15:30:50.409Z,309.27
2022-12-16T15:33:38.638Z,344.37
2022-12-16T15:36:33.839Z,242.73
2022-12-16T15:39:19.713Z,308.53
2022-12-16T15:42:06.722Z,240.57
2022-12-16T15:44:52.484Z,306.23
2022-12-16T15:47:53.025Z,235.03
2022-12-16T15:50:43.283Z,218.33
2022-12-16T15:54:05.425Z,254.70
2022-12-16T15:57:03.659Z,238.47
2022-12-16T15:59:56.601Z,211.27
2022-12-16T16:02:48.686Z,213.87
2022-12-16T16:05:41.282Z,254.70
2022-12-16T16:08:29.634Z,245.33
2022-12-16T16:11:16.281Z,227.47
2022-12-16T16:14:07.283Z,224.80
2022-12-16T16:16:56.039Z,226.43
2022-12-16T16:19:45.328Z,230.27
2022-12-16T16:22:34.189Z,226.03
2022-12-16T16:25:19.643Z,208.80
2022-12-16T16:28:05.457Z,251.57
2022-12-16T16:30:51.504Z,191.30
2022-12-16T16:33:37.170Z,204.07
2022-12-16T16:36:32.938Z,194.67
2022-12-16T16:39:18.772Z,200.33
2022-12-16T16:42:04.216Z,223.70
2022-12-16T16:44:50.353Z,232.27
2022-12-16T16:47:36.357Z,199.73
2022-12-16T16:50:22.280Z,213.13
2022-12-16T16:53:07.600Z,207.90
2022-12-16T16:55:52.790Z,196.43
2022-12-16T16:58:52.543Z,224.53
2022-12-16T17:01:38.564Z,298.70
2022-12-16T17:04:24.143Z,220.23
2022-12-16T17:07:09.460Z,195.57
2022-12-16T17:09:54.815Z,203.57
2022-12-16T17:12:48.113Z,240.73
2022-12-16T17:15:43.108Z,229.67
2022-12-16T17:18:29.121Z,235.13
2022-12-16T17:21:14.434Z,218.13
2022-12-16T17:24:00.142Z,240.37
2022-12-16T17:26:46.271Z,220.83
2022-12-16T17:30:00.556Z,267.23
2022-12-16T17:32:46.376Z,265.13
2022-12-16T17:35:31.957Z,236.53
2022-12-16T17:38:17.564Z,337.33
2022-12-16T17:41:09.927Z,283.50
2022-12-16T17:43:55.481Z,317.47
2022-12-16T17:46:44.065Z,236.13
2022-12-16T17:49:29.979Z,205.47
2022-12-16T17:52:15.526Z,190.43
2022-12-16T17:55:01.171Z,212.50
2022-12-16T17:57:46.975Z,223.00
2022-12-16T18:00:33.042Z,198.20
2022-12-16T18:03:18.578Z,218.67
2022-12-16T18:06:04.138Z,211.53
2022-12-16T18:08:51.596Z,198.33
2022-12-16T18:11:38.838Z,223.37
2022-12-16T18:14:24.597Z,222.20
2022-12-16T18:17:09.923Z,203.97
2022-12-16T18:19:55.370Z,206.47
2022-12-16T18:22:40.817Z,220.77
2022-12-16T18:25:26.574Z,216.40
2022-12-16T18:28:11.970Z,236.87
2022-12-16T18:31:04.895Z,243.10
2022-12-16T18:33:50.373Z,237.00
2022-12-16T18:36:36.277Z,290.87
2022-12-16T18:39:23.621Z,232.03
2022-12-16T18:42:08.962Z,231.60
2022-12-16T18:45:00.643Z,229.70
2022-12-16T18:47:46.534Z,289.63
2022-12-16T18:50:45.758Z,192.17
2022-12-16T18:53:31.196Z,296.07
2022-12-16T18:56:26.532Z,201.50
2022-12-16T18:59:12.225Z,213.73
2022-12-16T19:01:58.776Z,194.30
2022-12-16T19:04:44.500Z,201.37
2022-12-16T19:07:33.400Z,198.43
2022-12-16T19:10:19.407Z,188.77
2022-12-16T19:13:05.224Z,235.00
2022-12-16T19:15:51.109Z,227.93
2022-12-16T19:18:36.860Z,246.00
2022-12-16T19:21:22.665Z,220.70
2022-12-16T19:24:08.052Z,222.93
2022-12-16T19:26:56.462Z,204.70
2022-12-16T19:29:43.313Z,245.83
2022-12-16T19:32:28.929Z,229.67
2022-12-16T19:35:14.404Z,317.93
2022-12-16T19:37:59.834Z,202.73
2022-12-16T19:40:45.182Z,222.53
2022-12-16T19:43:30.702Z,254.83
2022-12-16T19:46:16.102Z,267.67
2022-12-16T19:49:01.440Z,260.27
2022-12-16T19:51:47.050Z,295.27
2022-12-16T19:54:32.340Z,329.33
2022-12-16T19:57:17.806Z,216.97
2022-12-16T20:00:03.154Z,227.27
2022-12-16T20:02:57.619Z,229.73
2022-12-16T20:05:43.140Z,197.30
2022-12-16T20:08:28.709Z,214.83
2022-12-16T20:11:13.995Z,228.03
2022-12-16T20:13:59.890Z,228.57
2022-12-16T20:16:45.251Z,216.03
2022-12-16T20:19:30.669Z,357.03
2022-12-16T20:22:16.603Z,323.47
2022-12-16T20:25:01.923Z,244.50
2022-12-16T20:27:47.340Z,289.80
2022-12-16T20:30:32.523Z,266.50
2022-12-16T20:33:17.986Z,271.80
2022-12-16T20:36:23.176Z,335.60
2022-12-16T20:39:08.558Z,242.60
2022-12-16T20:44:59.586Z,199.43
2022-12-16T20:47:44.923Z,224.47
2022-12-16T20:50:30.203Z,227.40
2022-12-16T20:53:15.620Z,206.90
2022-12-16T20:56:00.864Z,217.67
2022-12-16T20:58:46.200Z,220.80
2022-12-16T21:01:31.712Z,212.40
2022-12-16T21:04:17.122Z,224.10
2022-12-16T21:07:02.578Z,219.37
2022-12-16T21:09:47.766Z,209.00
2022-12-16T21:12:33.103Z,230.77
2022-12-16T21:15:18.517Z,219.23
2022-12-16T21:18:03.831Z,199.40
2022-12-16T21:20:49.522Z,184.53
2022-12-16T21:23:34.740Z,180.80
2022-12-16T21:26:20.126Z,194.83
2022-12-16T21:29:05.993Z,178.67
2022-12-16T21:31:51.395Z,184.43
2022-12-16T21:34:38.891Z,194.37
2022-12-16T21:37:24.250Z,211.03
2022-12-16T21:40:09.496Z,230.20
2022-12-16T21:42:56.406Z,209.40
2022-12-16T21:45:41.837Z,208.67
2022-12-16T21:48:30.408Z,227.37
2022-12-16T21:51:26.389Z,203.63
2022-12-16T21:54:11.813Z,225.87
2022-12-16T21:56:57.500Z,206.43
2022-12-16T21:59:42.948Z,231.27
2022-12-16T22:02:32.443Z,210.83
2022-12-16T22:05:17.720Z,231.27
2022-12-16T22:08:03.558Z,214.13
2022-12-16T22:10:48.917Z,222.30
2022-12-16T22:13:47.928Z,245.63
2022-12-16T22:16:33.727Z,222.93
2022-12-16T22:19:19.293Z,240.57
2022-12-16T22:22:06.767Z,226.47
2022-12-16T22:24:52.438Z,238.00
2022-12-16T22:27:39.223Z,244.90
2022-12-16T22:30:26.145Z,312.97
2022-12-16T22:33:11.648Z,332.27
2022-12-16T22:35:56.870Z,267.80
2022-12-16T22:38:42.159Z,202.60
2022-12-16T22:41:27.813Z,420.83
2022-12-16T22:44:13.357Z,327.03
2022-12-16T22:46:58.822Z,282.80
2022-12-16T22:49:44.697Z,298.40
2022-12-16T22:52:30.149Z,335.00
2022-12-16T22:55:15.395Z,248.73
2022-12-16T22:58:00.801Z,240.03
2022-12-16T23:00:46.686Z,235.33
2022-12-16T23:03:36.561Z,230.03
2022-12-16T23:06:33.207Z,227.50
2022-12-16T23:09:18.739Z,266.00
2022-12-16T23:12:04.219Z,224.23
2022-12-16T23:14:50.016Z,234.17
2022-12-16T23:17:38.281Z,234.17
2022-12-16T23:20:24.863Z,236.67
2022-12-16T23:23:17.849Z,226.00
2022-12-16T23:26:20.505Z,247.03
2022-12-16T23:29:12.599Z,249.17
2022-12-16T23:31:57.986Z,217.87
2022-12-16T23:32:30.732Z,215.57
2022-12-16T23:34:45.919Z,244.40
2022-12-16T23:37:33.470Z,240.50
2022-12-16T23:40:18.755Z,209.20
2022-12-16T23:43:06.475Z,236.17
2022-12-16T23:45:51.902Z,236.80
2022-12-16T23:48:37.840Z,189.70
2022-12-16T23:51:23.810Z,188.77
2022-12-16T23:54:09.025Z,210.83
2022-12-16T23:56:56.391Z,204.97
2022-12-16T23:59:41.859Z,204.77
